Time;durP1;ratioP1;P1;durP2;ratioP2;P2;SDS_P1;SDS_P2;PMS_P1;PMS_P2;Temp;Humidity;BMP_temperature;BMP_pressure;BME280_temperature;BME280_humidity;BME280_pressure;Samples;Min_cycle;Max_cycle;Signal;HPM_P1;HPM_P2
2022/06/20 00:01:37;;;;;;;18.80;10.20;;;23.20;66.00;;;;;;5074326;28;20927;-65
2022/06/20 00:04:05;;;;;;;18.53;10.80;;;23.20;66.30;;;;;;5074489;28;20999;-65
2022/06/20 00:06:33;;;;;;;15.30;9.10;;;23.20;66.40;;;;;;5074410;28;20527;-65
2022/06/20 00:09:00;;;;;;;19.23;11.23;;;23.10;66.20;;;;;;5074833;28;20434;-65
2022/06/20 00:11:37;;;;;;;16.67;9.70;;;23.10;66.40;;;;;;5074119;28;20498;-65
2022/06/20 00:14:07;;;;;;;12.47;9.03;;;23.10;66.50;;;;;;5074212;28;20438;-66
2022/06/20 00:16:37;;;;;;;12.20;8.20;;;23.10;66.90;;;;;;5074030;28;20440;-65
2022/06/20 00:19:05;;;;;;;14.70;9.30;;;23.10;67.00;;;;;;5074339;28;21009;-65
2022/06/20 00:21:32;;;;;;;16.60;8.57;;;23.00;66.60;;;;;;5074016;28;20621;-65
2022/06/20 00:24:00;;;;;;;15.70;9.80;;;23.00;66.60;;;;;;5074344;28;20825;-65
2022/06/20 00:26:27;;;;;;;18.00;9.43;;;23.00;67.10;;;;;;5073672;28;21045;-65
2022/06/20 00:28:57;;;;;;;19.80;12.07;;;22.80;68.30;;;;;;5074163;28;20466;-65
2022/06/20 00:31:26;;;;;;;17.20;9.87;;;22.70;68.70;;;;;;5073668;28;20432;-65
2022/06/20 00:33:53;;;;;;;16.97;10.20;;;22.60;68.80;;;;;;5074241;28;20476;-65
2022/06/20 00:36:20;;;;;;;13.67;10.07;;;22.60;68.70;;;;;;5073864;28;20437;-65
2022/06/20 00:38:50;;;;;;;13.53;8.23;;;22.60;68.40;;;;;;5074230;28;20432;-65
2022/06/20 00:41:21;;;;;;;19.47;8.97;;;22.60;67.90;;;;;;5073534;28;20489;-65
2022/06/20 00:43:50;;;;;;;17.43;9.53;;;22.60;67.40;;;;;;5073401;28;20497;-65
2022/06/20 00:46:27;;;;;;;18.33;8.73;;;22.60;67.30;;;;;;5073848;28;20510;-65
2022/06/20 00:49:03;;;;;;;16.30;9.13;;;22.60;68.00;;;;;;5073335;28;20956;-65
2022/06/20 00:51:37;;;;;;;18.20;10.30;;;22.60;68.60;;;;;;5073696;28;20439;-65
2022/06/20 00:54:12;;;;;;;18.80;10.17;;;22.60;69.40;;;;;;5073248;28;20526;-65
2022/06/20 00:56:50;;;;;;;18.80;9.50;;;22.50;70.00;;;;;;5073700;28;20537;-66
2022/06/20 00:59:23;;;;;;;17.53;8.63;;;22.50;70.30;;;;;;5073075;28;20436;-65
2022/06/20 01:01:52;;;;;;;17.60;9.40;;;22.40;69.90;;;;;;5073755;28;20428;-65
2022/06/20 01:04:27;;;;;;;18.03;9.93;;;22.30;70.70;;;;;;5073296;28;20436;-65
2022/06/20 01:06:57;;;;;;;15.13;9.00;;;22.10;70.80;;;;;;5073386;28;20444;-65
2022/06/20 01:09:28;;;;;;;17.43;10.83;;;22.10;71.10;;;;;;5073211;28;20477;-65
2022/06/20 01:12:02;;;;;;;14.90;9.30;;;22.00;72.00;;;;;;5073332;28;20576;-65
2022/06/20 01:14:34;;;;;;;19.80;9.63;;;21.90;71.80;;;;;;5072980;28;20438;-65
2022/06/20 01:17:06;;;;;;;13.73;10.87;;;21.80;72.10;;;;;;5073261;28;20524;-65
2022/06/20 01:19:53;;;;;;;14.00;10.77;;;21.80;72.50;;;;;;5072886;28;20440;-66
2022/06/20 01:22:44;;;;;;;15.30;9.90;;;21.80;72.60;;;;;;5073076;28;20436;-65
2022/06/20 01:25:40;;;;;;;19.00;10.07;;;21.70;74.00;;;;;;5072875;28;20566;-66
2022/06/20 01:28:12;;;;;;;14.60;9.40;;;21.50;74.70;;;;;;5072395;28;20870;-66
2022/06/20 01:30:43;;;;;;;11.50;10.20;;;21.40;75.10;;;;;;5073070;28;20464;-66
2022/06/20 01:33:12;;;;;;;17.63;10.17;;;21.40;75.30;;;;;;5071887;28;20444;-65
2022/06/20 01:38:25;;;;;;;18.13;10.23;;;21.20;76.30;;;;;;5072538;28;20454;-65
2022/06/20 01:43:39;;;;;;;15.10;10.73;;;21.30;76.20;;;;;;5067946;28;20423;-66
2022/06/20 01:46:10;;;;;;;21.37;11.17;;;21.40;76.00;;;;;;5072664;28;20486;-66
2022/06/20 01:48:40;;;;;;;14.60;10.53;;;21.40;75.90;;;;;;5071904;28;20436;-65
2022/06/20 01:51:13;;;;;;;20.93;11.20;;;21.30;76.00;;;;;;5071895;28;20463;-65
2022/06/20 01:53:43;;;;;;;19.40;9.70;;;21.30;76.40;;;;;;5072645;28;20938;-65
2022/06/20 01:56:11;;;;;;;14.90;9.97;;;21.30;76.00;;;;;;5072570;28;20444;-66
2022/06/20 01:58:44;;;;;;;19.33;10.20;;;21.20;75.80;;;;;;5072308;28;20861;-65
2022/06/20 02:01:14;;;;;;;18.23;10.70;;;21.20;76.70;;;;;;5072484;28;20440;-65
2022/06/20 02:03:43;;;;;;;18.20;10.07;;;21.10;77.10;;;;;;5072047;28;20439;-65
2022/06/20 02:06:15;;;;;;;16.47;10.87;;;21.10;77.20;;;;;;5072076;28;20575;-65
2022/06/20 02:08:44;;;;;;;15.93;9.90;;;21.10;76.90;;;;;;5072449;28;20428;-66
2022/06/20 02:11:18;;;;;;;16.23;9.97;;;21.10;77.30;;;;;;5071872;28;20475;-65
2022/06/20 02:13:51;;;;;;;18.47;8.70;;;21.10;78.00;;;;;;5072447;28;20493;-66
2022/06/20 02:16:21;;;;;;;18.10;11.27;;;21.10;78.60;;;;;;5072229;28;20448;-65
2022/06/20 02:18:53;;;;;;;21.27;9.20;;;21.10;79.00;;;;;;5072352;28;20471;-65
2022/06/20 02:21:24;;;;;;;17.50;10.00;;;21.00;79.70;;;;;;5071909;28;20514;-65
2022/06/20 02:23:55;;;;;;;17.90;12.37;;;21.00;79.60;;;;;;5072516;28;20432;-65
2022/06/20 02:26:23;;;;;;;15.37;9.80;;;21.00;80.50;;;;;;5071627;28;20471;-65
2022/06/20 02:28:57;;;;;;;22.20;11.47;;;20.80;80.00;;;;;;5071793;28;20521;-65
2022/06/20 02:31:25;;;;;;;23.03;9.93;;;20.70;80.20;;;;;;5071833;28;20436;-66
2022/06/20 02:33:53;;;;;;;24.30;11.97;;;20.70;80.50;;;;;;5071970;28;20440;-65
2022/06/20 02:36:20;;;;;;;12.93;10.57;;;20.60;81.10;;;;;;5075619;28;20815;-65
2022/06/20 02:38:47;;;;;;;23.73;10.40;;;20.60;81.90;;;;;;5075673;28;20490;-65
2022/06/20 02:41:17;;;;;;;16.23;11.43;;;20.60;82.60;;;;;;5075840;28;20499;-65
2022/06/20 02:43:48;;;;;;;12.80;10.13;;;20.50;83.10;;;;;;5076085;28;20470;-65
2022/06/20 02:46:23;;;;;;;22.07;11.70;;;20.60;82.90;;;;;;5076048;28;20480;-66
2022/06/20 02:48:52;;;;;;;20.97;12.07;;;20.60;83.10;;;;;;5075907;28;20427;-65
2022/06/20 02:51:26;;;;;;;30.37;12.07;;;20.40;83.60;;;;;;5076175;28;20439;-65
2022/06/20 02:53:57;;;;;;;16.27;10.53;;;20.40;83.80;;;;;;5075231;28;20474;-65
2022/06/20 02:56:26;;;;;;;18.27;11.23;;;20.40;83.90;;;;;;5075636;28;20428;-65
2022/06/20 02:58:57;;;;;;;20.07;11.77;;;20.50;83.80;;;;;;5075191;28;20965;-66
2022/06/20 03:01:35;;;;;;;17.00;11.00;;;20.50;83.90;;;;;;5075540;28;20444;-66
2022/06/20 03:04:03;;;;;;;17.67;11.10;;;20.40;84.10;;;;;;5055756;28;20440;-65
2022/06/20 03:06:33;;;;;;;18.40;12.00;;;20.50;83.60;;;;;;5055680;28;21060;-66
2022/06/20 03:09:01;;;;;;;20.00;11.33;;;20.40;83.20;;;;;;5075611;28;20439;-66
2022/06/20 03:11:32;;;;;;;19.50;11.33;;;20.50;82.70;;;;;;5075652;28;20440;-65
2022/06/20 03:14:03;;;;;;;15.97;10.07;;;20.50;82.60;;;;;;5075568;28;20472;-65
2022/06/20 03:16:33;;;;;;;17.97;10.93;;;20.50;82.80;;;;;;5075357;28;20538;-65
2022/06/20 03:19:02;;;;;;;13.90;10.43;;;20.50;82.70;;;;;;5074990;28;20440;-65
2022/06/20 03:21:34;;;;;;;15.00;11.17;;;20.40;83.00;;;;;;5075728;28;20493;-65
2022/06/20 03:24:03;;;;;;;17.80;9.27;;;20.40;83.10;;;;;;5075031;28;20485;-66
2022/06/20 03:26:30;;;;;;;17.03;10.13;;;20.50;83.20;;;;;;5075122;28;20627;-66
2022/06/20 03:28:58;;;;;;;20.60;10.10;;;20.60;83.20;;;;;;5073983;28;20547;-65
2022/06/20 03:31:26;;;;;;;16.63;9.70;;;20.60;82.60;;;;;;5073969;28;20934;-65
2022/06/20 03:33:55;;;;;;;16.97;10.30;;;20.70;82.30;;;;;;5073720;28;20772;-65
2022/06/20 03:36:25;;;;;;;18.60;10.50;;;20.80;81.50;;;;;;5074061;28;20450;-65
2022/06/20 03:38:52;;;;;;;14.37;9.87;;;20.80;81.00;;;;;;5073478;28;20444;-65
2022/06/20 03:41:26;;;;;;;14.63;9.00;;;20.90;81.30;;;;;;5073490;28;20459;-65
2022/06/20 03:43:58;;;;;;;23.07;10.30;;;20.90;80.80;;;;;;5074074;28;20800;-65
2022/06/20 03:46:30;;;;;;;16.30;9.67;;;20.80;80.60;;;;;;5072979;28;20480;-65
2022/06/20 03:49:02;;;;;;;19.53;9.97;;;20.90;80.60;;;;;;5073742;28;20854;-65
2022/06/20 03:51:37;;;;;;;16.53;10.47;;;20.90;79.80;;;;;;5073482;28;20530;-66
2022/06/20 03:54:09;;;;;;;16.53;9.80;;;20.80;80.00;;;;;;5074097;28;20852;-65
2022/06/20 03:56:46;;;;;;;21.37;9.50;;;20.80;80.10;;;;;;5073268;28;20466;-66
2022/06/20 03:59:20;;;;;;;12.10;9.43;;;20.80;79.70;;;;;;5073838;28;20443;-66
2022/06/20 04:01:53;;;;;;;22.60;10.50;;;20.80;79.90;;;;;;5073208;28;20493;-65
2022/06/20 04:04:28;;;;;;;24.00;10.03;;;20.80;79.70;;;;;;5073857;28;20918;-66
2022/06/20 04:07:00;;;;;;;15.50;10.30;;;20.80;79.70;;;;;;5073490;28;20517;-65
2022/06/20 04:12:24;;;;;;;13.90;9.57;;;20.90;80.20;;;;;;5073207;28;20474;-66
2022/06/20 04:14:56;;;;;;;15.70;10.13;;;21.00;80.20;;;;;;5073183;28;20440;-65
2022/06/20 04:20:23;;;;;;;20.00;9.60;;;21.20;79.10;;;;;;5073000;28;20436;-66
2022/06/20 04:22:55;;;;;;;10.70;8.00;;;21.20;78.10;;;;;;5053695;28;20490;-66
2022/06/20 04:25:31;;;;;;;15.83;9.83;;;21.40;78.10;;;;;;5070071;28;20927;-65
2022/06/20 04:28:05;;;;;;;14.23;9.67;;;21.50;79.00;;;;;;5029819;28;1247820;-66
2022/06/20 04:30:37;;;;;;;13.33;9.63;;;21.50;80.00;;;;;;5074002;28;20292;-66
2022/06/20 04:33:12;;;;;;;18.60;11.10;;;21.50;80.50;;;;;;5074432;28;20436;-65
2022/06/20 04:35:44;;;;;;;15.83;9.43;;;21.60;80.20;;;;;;5073956;28;20443;-66
2022/06/20 04:38:17;;;;;;;15.53;10.10;;;21.70;80.10;;;;;;5073988;28;20440;-66
2022/06/20 04:40:52;;;;;;;17.60;10.17;;;21.70;81.80;;;;;;5073812;28;20530;-65
2022/06/20 04:43:26;;;;;;;17.50;10.90;;;21.80;81.90;;;;;;5074099;28;20910;-66
2022/06/20 04:45:58;;;;;;;28.40;11.03;;;21.80;80.60;;;;;;5068241;28;20483;-66
2022/06/20 04:48:26;;;;;;;11.80;10.20;;;21.90;81.90;;;;;;5072034;28;20439;-66
2022/06/20 04:50:58;;;;;;;17.00;10.93;;;21.90;80.20;;;;;;5071893;28;20931;-66
2022/06/20 04:53:28;;;;;;;13.67;9.77;;;22.00;78.20;;;;;;5068598;28;20472;-66
2022/06/20 04:55:58;;;;;;;14.33;10.30;;;22.10;77.60;;;;;;5071801;28;20448;-66
2022/06/20 04:58:29;;;;;;;14.30;9.77;;;22.10;77.20;;;;;;5065565;28;20448;-67
2022/06/20 05:00:58;;;;;;;16.03;8.93;;;22.20;77.90;;;;;;5069984;28;21283;-66
2022/06/20 05:03:28;;;;;;;16.30;9.40;;;22.30;77.60;;;;;;5070938;28;20467;-68
2022/06/20 05:05:59;;;;;;;15.03;9.03;;;22.50;77.60;;;;;;5071622;28;20558;-67
2022/06/20 05:08:30;;;;;;;14.77;8.80;;;22.60;77.30;;;;;;5068348;28;20520;-66
2022/06/20 05:11:03;;;;;;;15.43;9.60;;;22.80;77.10;;;;;;5071871;28;20451;-66
2022/06/20 05:13:41;;;;;;;21.00;10.10;;;23.10;77.60;;;;;;5071446;28;20447;-66
2022/06/20 05:16:15;;;;;;;20.00;10.33;;;23.30;78.40;;;;;;5068066;28;20452;-69
2022/06/20 05:18:46;;;;;;;15.60;9.63;;;23.50;79.60;;;;;;5066551;28;20993;-67
2022/06/20 05:21:18;;;;;;;22.20;9.67;;;23.70;80.00;;;;;;5064558;28;20449;-66
2022/06/20 05:23:48;;;;;;;13.57;9.57;;;23.80;79.80;;;;;;5068661;28;20536;-67
2022/06/20 05:26:18;;;;;;;29.43;11.10;;;24.00;80.10;;;;;;5066100;28;21072;-68
2022/06/20 05:28:49;;;;;;;27.87;13.00;;;24.10;81.10;;;;;;5067368;28;20463;-66
2022/06/20 05:31:20;;;;;;;18.23;10.60;;;24.10;84.60;;;;;;5068442;28;20479;-67
2022/06/20 05:33:55;;;;;;;21.50;12.67;;;24.10;86.00;;;;;;5071078;28;20438;-66
2022/06/20 05:36:26;;;;;;;17.93;11.77;;;24.10;86.00;;;;;;5069710;28;20530;-66
2022/06/20 05:38:59;;;;;;;20.43;11.50;;;24.00;85.20;;;;;;5070975;28;20527;-66
2022/06/20 05:41:26;;;;;;;19.73;12.00;;;24.00;82.70;;;;;;5070545;28;20450;-67
2022/06/20 05:43:53;;;;;;;20.77;12.07;;;23.90;82.70;;;;;;5069179;28;20433;-66
2022/06/20 05:46:25;;;;;;;22.83;12.00;;;23.80;84.20;;;;;;5070603;28;20469;-67
2022/06/20 05:48:56;;;;;;;15.63;10.63;;;23.80;84.80;;;;;;5070683;28;20917;-66
2022/06/20 05:51:27;;;;;;;17.30;10.57;;;23.60;85.40;;;;;;5070796;28;20436;-66
2022/06/20 05:54:00;;;;;;;15.70;11.20;;;23.50;86.20;;;;;;5066736;28;20474;-66
2022/06/20 05:56:31;;;;;;;18.60;10.60;;;23.50;88.40;;;;;;5069142;28;20533;-66
2022/06/20 05:59:00;;;;;;;18.47;11.10;;;23.50;89.90;;;;;;5070509;28;20443;-67
2022/06/20 06:01:31;;;;;;;29.03;13.53;;;23.40;90.00;;;;;;5069943;28;20787;-66
2022/06/20 06:04:05;;;;;;;19.47;12.13;;;23.50;90.30;;;;;;5070687;28;20508;-67
2022/06/20 06:06:39;;;;;;;19.73;10.47;;;23.50;90.20;;;;;;5066364;28;20480;-67
2022/06/20 06:09:13;;;;;;;16.67;10.30;;;23.50;90.20;;;;;;5067137;28;20432;-67
2022/06/20 06:11:45;;;;;;;19.00;10.30;;;23.50;90.30;;;;;;5070649;28;20442;-67
2022/06/20 06:14:20;;;;;;;38.47;11.37;;;23.40;90.70;;;;;;5070964;28;20449;-66
2022/06/20 06:16:53;;;;;;;19.27;9.80;;;23.40;91.30;;;;;;5070066;28;20443;-67
2022/06/20 06:19:34;;;;;;;19.10;9.70;;;23.30;88.40;;;;;;5070781;28;20541;-67
2022/06/20 06:22:06;;;;;;;13.87;9.80;;;23.30;86.90;;;;;;5069861;28;20436;-66
2022/06/20 06:24:38;;;;;;;19.67;9.47;;;23.30;86.00;;;;;;5070467;28;20451;-66
2022/06/20 06:27:10;;;;;;;16.83;9.43;;;23.30;88.30;;;;;;5069781;28;20531;-69
2022/06/20 06:29:43;;;;;;;11.00;8.93;;;23.40;87.30;;;;;;5070603;28;20466;-66
2022/06/20 06:32:16;;;;;;;14.47;8.40;;;23.40;85.20;;;;;;5069972;28;20852;-67
2022/06/20 06:34:51;;;;;;;14.87;8.77;;;23.50;84.10;;;;;;5070011;28;20516;-66
2022/06/20 06:37:24;;;;;;;12.77;8.43;;;23.50;83.50;;;;;;5070720;28;20447;-67
2022/06/20 06:39:55;;;;;;;12.10;8.60;;;23.50;83.60;;;;;;5069687;28;20479;-72
2022/06/20 06:42:22;;;;;;;15.67;8.67;;;23.70;83.20;;;;;;5069315;28;20433;-66
2022/06/20 06:44:51;;;;;;;12.90;9.30;;;23.80;84.00;;;;;;5070149;28;21006;-67
2022/06/20 06:47:22;;;;;;;18.97;8.83;;;24.00;84.80;;;;;;5070755;28;20489;-68
2022/06/20 06:49:54;;;;;;;23.33;9.77;;;24.10;85.20;;;;;;5070919;28;20522;-66
2022/06/20 06:52:33;;;;;;;14.77;7.97;;;24.40;85.20;;;;;;5070925;28;20947;-67
2022/06/20 06:55:06;;;;;;;15.77;8.00;;;24.60;81.60;;;;;;5070408;28;20529;-67
2022/06/20 06:57:38;;;;;;;18.10;9.20;;;24.80;76.40;;;;;;5070441;28;20445;-68
2022/06/20 07:00:31;;;;;;;14.40;8.33;;;25.10;73.90;;;;;;5066138;28;20438;-67
2022/06/20 07:03:03;;;;;;;12.87;8.17;;;25.40;76.30;;;;;;5069558;28;20449;-66
2022/06/20 07:05:35;;;;;;;13.63;8.17;;;25.70;77.50;;;;;;5070845;28;20428;-67
2022/06/20 07:08:11;;;;;;;14.80;8.43;;;26.00;76.60;;;;;;5075085;28;20818;-67
2022/06/20 07:10:45;;;;;;;17.60;8.73;;;26.10;75.30;;;;;;5071802;28;20610;-67
2022/06/20 07:13:21;;;;;;;13.50;7.20;;;26.10;73.70;;;;;;5074927;28;21002;-67
2022/06/20 07:15:51;;;;;;;11.47;8.47;;;26.20;71.80;;;;;;5072870;28;20534;-67
2022/06/20 07:18:37;;;;;;;18.10;8.07;;;26.20;71.40;;;;;;5075319;28;20543;-67
2022/06/20 07:21:05;;;;;;;11.33;8.03;;;26.30;69.30;;;;;;5081776;28;20443;-67
2022/06/20 07:23:35;;;;;;;11.50;7.67;;;26.50;69.40;;;;;;5083585;28;20803;-67
2022/06/20 07:26:02;;;;;;;12.60;6.53;;;26.60;65.50;;;;;;5082284;28;20936;-65
2022/06/20 07:28:38;;;;;;;10.13;5.40;;;26.80;66.50;;;;;;5084127;28;20514;-71
2022/06/20 07:31:12;;;;;;;12.60;5.30;;;27.10;65.30;;;;;;5082079;28;20983;-66
2022/06/20 07:33:50;;;;;;;7.43;5.10;;;27.40;62.80;;;;;;5083002;28;20504;-66
2022/06/20 07:36:22;;;;;;;8.97;5.50;;;27.60;61.50;;;;;;5078592;28;20976;-66
2022/06/20 07:38:55;;;;;;;10.40;5.00;;;27.80;59.60;;;;;;5082033;28;20522;-66
2022/06/20 07:41:27;;;;;;;13.80;5.27;;;27.90;57.20;;;;;;5079926;28;20454;-65
2022/06/20 07:44:00;;;;;;;11.60;6.00;;;28.00;56.20;;;;;;5082374;28;20440;-66
2022/06/20 07:46:34;;;;;;;8.63;5.20;;;28.20;54.90;;;;;;5082812;28;20450;-66
2022/06/20 07:49:10;;;;;;;7.17;4.90;;;28.50;55.00;;;;;;5084765;28;20530;-66
2022/06/20 07:51:41;;;;;;;15.43;6.33;;;28.60;53.20;;;;;;5083402;28;20448;-65
2022/06/20 07:54:13;;;;;;;7.10;4.93;;;28.70;50.30;;;;;;5082646;28;20486;-66
2022/06/20 07:56:44;;;;;;;8.40;4.73;;;28.90;51.30;;;;;;5084504;28;20806;-66
2022/06/20 07:59:17;;;;;;;8.03;5.03;;;29.00;49.50;;;;;;5083680;28;20447;-66
2022/06/20 08:01:49;;;;;;;6.67;4.33;;;29.10;49.50;;;;;;5083402;28;20440;-66
2022/06/20 08:04:21;;;;;;;13.07;5.60;;;29.20;50.90;;;;;;5084881;28;20525;-66
2022/06/20 08:06:54;;;;;;;12.03;5.57;;;29.40;50.70;;;;;;5083082;28;20843;-66
2022/06/20 08:09:29;;;;;;;18.60;5.50;;;29.50;48.70;;;;;;5085751;28;20501;-66
2022/06/20 08:12:00;;;;;;;11.30;5.27;;;29.70;48.90;;;;;;5081832;28;20436;-66
2022/06/20 08:14:36;;;;;;;10.60;5.50;;;29.80;48.40;;;;;;5082153;28;20440;-66
2022/06/20 08:17:07;;;;;;;13.90;5.40;;;30.10;47.70;;;;;;5083433;28;20439;-69
2022/06/20 08:19:35;;;;;;;9.63;5.70;;;30.20;47.70;;;;;;5082764;28;20436;-67
2022/06/20 08:22:05;;;;;;;15.07;6.40;;;30.30;45.90;;;;;;5082219;28;20450;-66
2022/06/20 08:24:43;;;;;;;7.33;4.60;;;30.50;47.30;;;;;;5085699;28;20526;-66
2022/06/20 08:27:15;;;;;;;13.07;5.83;;;30.70;43.80;;;;;;5082765;28;20487;-66
2022/06/20 08:29:50;;;;;;;11.47;5.60;;;30.80;46.80;;;;;;5084025;28;20498;-70
2022/06/20 08:32:26;;;;;;;9.80;5.17;;;30.90;45.20;;;;;;5080783;28;20435;-66
2022/06/20 08:35:00;;;;;;;6.90;4.93;;;30.90;45.00;;;;;;5084343;28;20453;-66
2022/06/20 08:37:38;;;;;;;7.30;5.23;;;31.00;44.30;;;;;;5078160;28;20511;-66
2022/06/20 08:40:25;;;;;;;9.60;5.80;;;31.10;43.10;;;;;;5071198;28;20440;-66
2022/06/20 08:43:25;;;;;;;15.00;5.50;;;31.20;42.80;;;;;;5073294;28;20501;-66
2022/06/20 08:46:13;;;;;;;12.50;5.73;;;31.30;42.10;;;;;;5073173;28;20444;-66
2022/06/20 08:49:24;;;;;;;9.40;5.43;;;31.30;42.50;;;;;;5070592;28;20843;-66
2022/06/20 08:52:27;;;;;;;15.23;5.80;;;31.50;40.90;;;;;;5076545;28;20490;-66
2022/06/20 08:55:30;;;;;;;10.53;5.83;;;31.80;41.80;;;;;;5078597;28;20522;-70
2022/06/20 08:58:06;;;;;;;10.20;5.43;;;32.20;41.40;;;;;;5075547;28;20799;-66
2022/06/20 09:00:40;;;;;;;12.03;6.20;;;32.40;42.30;;;;;;5077808;28;20435;-67
2022/06/20 09:03:46;;;;;;;13.20;6.40;;;32.60;42.20;;;;;;5081131;28;20442;-66
2022/06/20 09:06:41;;;;;;;13.63;7.23;;;32.50;39.50;;;;;;5079041;28;20448;-66
2022/06/20 09:09:32;;;;;;;9.13;6.67;;;32.50;39.30;;;;;;5078484;28;20522;-66
2022/06/20 09:12:16;;;;;;;9.80;6.03;;;32.40;40.00;;;;;;5082375;28;20523;-66
2022/06/20 09:15:02;;;;;;;14.30;6.73;;;32.50;40.90;;;;;;5078833;28;20440;-66
2022/06/20 09:17:43;;;;;;;8.33;5.60;;;32.70;39.70;;;;;;5082262;28;20445;-66
2022/06/20 09:20:18;;;;;;;7.10;5.50;;;32.90;40.40;;;;;;5078400;28;20446;-67
2022/06/20 09:23:03;;;;;;;12.87;6.23;;;33.00;39.00;;;;;;5076050;28;20444;-66
2022/06/20 09:25:40;;;;;;;10.77;5.23;;;33.10;39.40;;;;;;5081856;28;20511;-66
2022/06/20 09:28:19;;;;;;;8.47;4.80;;;33.10;37.60;;;;;;5081066;28;20487;-66
2022/06/20 09:30:56;;;;;;;8.57;5.07;;;33.10;37.20;;;;;;5076373;28;20518;-66
2022/06/20 09:33:39;;;;;;;9.10;5.50;;;33.10;37.30;;;;;;5079713;28;20946;-66
2022/06/20 09:36:41;;;;;;;10.50;6.17;;;33.20;37.40;;;;;;5080942;28;20469;-66
2022/06/20 09:39:32;;;;;;;11.00;5.40;;;33.30;36.90;;;;;;5083281;28;20766;-66
2022/06/20 09:42:06;;;;;;;14.87;5.27;;;33.40;37.10;;;;;;5081470;28;20444;-66
2022/06/20 09:44:40;;;;;;;11.93;5.60;;;33.60;36.60;;;;;;5078928;28;20454;-66
2022/06/20 09:47:22;;;;;;;12.03;5.10;;;33.70;36.50;;;;;;5082815;28;20577;-66
2022/06/20 09:49:57;;;;;;;6.90;5.00;;;33.70;35.30;;;;;;5079263;28;20447;-66
2022/06/20 09:52:38;;;;;;;9.80;5.97;;;33.50;34.80;;;;;;5082768;28;20538;-66
2022/06/20 09:55:15;;;;;;;12.33;6.47;;;33.30;36.20;;;;;;5082670;28;20998;-66
2022/06/20 09:57:52;;;;;;;9.40;5.30;;;33.30;35.80;;;;;;5080585;28;20444;-66
2022/06/20 10:00:24;;;;;;;11.03;5.20;;;33.40;35.70;;;;;;5079113;28;20440;-66
2022/06/20 10:03:00;;;;;;;7.43;5.30;;;33.40;36.00;;;;;;5078580;28;20786;-66
2022/06/20 10:05:43;;;;;;;9.80;5.33;;;33.40;35.50;;;;;;5082737;28;20443;-71
2022/06/20 10:08:28;;;;;;;12.07;5.10;;;33.40;36.20;;;;;;5082909;28;20495;-66
2022/06/20 10:11:01;;;;;;;10.03;4.90;;;33.40;36.90;;;;;;5079634;28;20874;-66
2022/06/20 10:13:41;;;;;;;15.10;5.53;;;33.40;38.30;;;;;;5079135;28;20531;-66
2022/06/20 10:16:19;;;;;;;7.50;4.97;;;33.50;36.70;;;;;;5081364;28;20443;-66
2022/06/20 10:19:00;;;;;;;8.17;5.47;;;33.50;34.50;;;;;;5083521;28;20838;-66
2022/06/20 10:21:33;;;;;;;9.90;5.07;;;33.40;34.20;;;;;;5080432;28;20446;-66
2022/06/20 10:24:22;;;;;;;11.10;4.83;;;33.40;34.30;;;;;;5079635;28;20796;-66
2022/06/20 10:27:25;;;;;;;10.23;5.23;;;33.40;34.00;;;;;;5078438;28;20428;-66
2022/06/20 10:30:09;;;;;;;11.37;4.23;;;33.40;33.30;;;;;;5078947;28;20883;-66
2022/06/20 10:32:59;;;;;;;9.00;5.70;;;33.30;31.80;;;;;;5075299;28;20443;-66
2022/06/20 10:35:46;;;;;;;9.77;4.33;;;33.30;33.00;;;;;;5065683;28;20452;-66
2022/06/20 10:38:23;;;;;;;9.47;4.53;;;33.30;32.50;;;;;;5071277;28;20526;-66
2022/06/20 10:41:00;;;;;;;6.50;4.40;;;33.40;32.50;;;;;;5083522;28;20470;-66
2022/06/20 10:43:43;;;;;;;7.47;4.20;;;33.40;32.70;;;;;;5079374;28;20447;-67
2022/06/20 10:46:17;;;;;;;9.27;3.80;;;33.30;31.90;;;;;;5078836;28;20837;-66
2022/06/20 10:49:29;;;;;;;7.57;3.80;;;33.20;33.00;;;;;;5081085;28;20569;-66
2022/06/20 10:52:09;;;;;;;8.13;4.13;;;33.30;33.30;;;;;;5077950;28;20531;-66
2022/06/20 10:54:52;;;;;;;10.80;4.17;;;33.40;33.00;;;;;;5079963;28;20535;-66
2022/06/20 10:57:27;;;;;;;12.53;4.50;;;33.40;31.50;;;;;;5083766;28;20530;-66
2022/06/20 11:00:02;;;;;;;14.20;4.40;;;33.40;32.00;;;;;;5080987;28;20522;-66
2022/06/20 11:02:38;;;;;;;7.00;3.40;;;33.70;32.90;;;;;;5083201;28;20445;-66
2022/06/20 11:05:16;;;;;;;9.37;4.13;;;33.80;29.90;;;;;;5084072;28;20989;-66
2022/06/20 11:07:51;;;;;;;8.17;3.70;;;33.80;29.90;;;;;;5080834;28;20454;-66
2022/06/20 11:10:51;;;;;;;8.00;3.57;;;33.90;29.60;;;;;;5085124;28;20537;-66
2022/06/20 11:13:27;;;;;;;7.00;3.83;;;33.70;29.60;;;;;;5084416;28;20436;-66
2022/06/20 11:16:05;;;;;;;10.30;4.10;;;33.50;29.80;;;;;;5083478;28;20968;-66
2022/06/20 11:18:54;;;;;;;9.50;4.20;;;33.30;28.80;;;;;;5080734;28;20459;-66
2022/06/20 11:21:30;;;;;;;8.20;3.97;;;33.20;29.60;;;;;;5081177;28;20496;-66
2022/06/20 11:24:13;;;;;;;8.00;3.10;;;33.00;29.30;;;;;;5082215;28;20545;-66
2022/06/20 11:26:48;;;;;;;7.43;4.27;;;32.90;30.50;;;;;;5078666;28;20496;-66
2022/06/20 11:29:30;;;;;;;13.43;4.70;;;32.70;30.70;;;;;;5081146;28;20565;-66
2022/06/20 11:32:07;;;;;;;9.43;5.20;;;32.60;31.90;;;;;;5085734;28;20933;-66
2022/06/20 11:34:52;;;;;;;14.30;4.40;;;32.60;31.00;;;;;;5081231;28;20432;-66
2022/06/20 11:37:34;;;;;;;7.90;4.27;;;32.50;31.10;;;;;;5084336;28;20450;-66
2022/06/20 11:40:15;;;;;;;9.60;4.33;;;32.40;30.20;;;;;;5080072;28;20440;-70
2022/06/20 11:43:08;;;;;;;8.70;4.20;;;32.40;31.20;;;;;;5073805;28;20438;-66
2022/06/20 11:45:58;;;;;;;7.80;3.97;;;32.50;31.70;;;;;;5079116;28;20440;-66
2022/06/20 11:48:46;;;;;;;13.07;4.50;;;32.50;31.00;;;;;;5080727;28;20563;-66
2022/06/20 11:51:22;;;;;;;8.73;5.03;;;32.50;30.50;;;;;;5082679;28;20531;-66
2022/06/20 11:54:00;;;;;;;10.90;4.77;;;32.50;30.80;;;;;;5083723;28;20545;-66
2022/06/20 11:56:41;;;;;;;8.70;3.33;;;32.60;31.20;;;;;;5083129;28;20446;-66
2022/06/20 11:59:23;;;;;;;9.10;4.47;;;32.80;31.60;;;;;;5081641;28;20442;-67
2022/06/20 12:02:01;;;;;;;10.40;3.93;;;32.90;31.10;;;;;;5065177;28;20886;-66
2022/06/20 12:04:37;;;;;;;9.53;4.10;;;33.10;32.50;;;;;;5074853;28;20526;-66
2022/06/20 12:07:14;;;;;;;7.10;3.33;;;33.30;32.20;;;;;;5074887;28;20443;-67
2022/06/20 12:09:49;;;;;;;10.93;5.40;;;33.30;31.70;;;;;;5075251;28;20914;-67
2022/06/20 12:12:37;;;;;;;7.63;4.07;;;33.30;32.10;;;;;;5075265;28;20440;-67
2022/06/20 12:15:37;;;;;;;7.87;3.50;;;33.40;32.50;;;;;;5075162;28;20531;-67
2022/06/20 12:18:35;;;;;;;8.30;5.60;;;33.40;30.50;;;;;;5071762;28;20522;-66
2022/06/20 12:24:02;;;;;;;8.23;4.40;;;33.30;30.70;;;;;;5075064;28;20490;-66
2022/06/20 12:26:35;;;;;;;7.30;4.17;;;33.30;31.00;;;;;;5074340;28;20447;-66
2022/06/20 12:29:18;;;;;;;10.63;3.27;;;33.30;30.00;;;;;;5074820;28;20487;-68
2022/06/20 12:31:48;;;;;;;7.50;3.43;;;33.30;29.30;;;;;;5074931;28;20440;-66
2022/06/20 12:34:31;;;;;;;7.73;3.10;;;33.30;30.00;;;;;;5074875;28;20436;-66
2022/06/20 12:37:04;;;;;;;7.87;3.90;;;33.40;30.30;;;;;;5074765;28;20522;-66
2022/06/20 12:39:33;;;;;;;7.27;2.97;;;33.60;30.10;;;;;;5074685;28;20455;-66
2022/06/20 12:42:15;;;;;;;8.50;4.23;;;33.80;30.10;;;;;;5074230;28;20436;-66
2022/06/20 12:44:53;;;;;;;7.47;3.90;;;33.80;30.00;;;;;;5074540;28;20503;-66
2022/06/20 12:48:00;;;;;;;9.90;3.97;;;33.90;30.70;;;;;;5074573;28;20852;-66
2022/06/20 12:50:40;;;;;;;7.20;3.60;;;33.90;29.70;;;;;;5063429;28;20451;-66
2022/06/20 12:53:27;;;;;;;8.27;3.30;;;34.00;29.80;;;;;;5074289;28;20436;-66
2022/06/20 12:56:07;;;;;;;7.47;3.40;;;34.00;29.80;;;;;;5074257;28;20475;-67
2022/06/20 12:59:03;;;;;;;10.20;4.10;;;33.90;29.00;;;;;;5073859;28;20511;-67
2022/06/20 13:01:40;;;;;;;6.87;4.07;;;33.80;29.20;;;;;;5074337;28;20442;-71
2022/06/20 13:04:37;;;;;;;6.10;3.67;;;33.70;29.00;;;;;;5073965;28;20439;-66
2022/06/20 13:07:31;;;;;;;6.10;3.40;;;33.40;29.70;;;;;;5074057;28;20507;-66
2022/06/20 13:10:16;;;;;;;7.93;3.30;;;33.30;29.20;;;;;;5073843;28;20487;-66
2022/06/20 13:13:02;;;;;;;6.80;3.13;;;33.10;30.70;;;;;;5073756;28;20436;-65
2022/06/20 13:15:45;;;;;;;6.50;3.50;;;33.00;31.10;;;;;;5073964;28;20500;-66
2022/06/20 13:18:50;;;;;;;11.10;3.90;;;32.80;29.40;;;;;;5073388;28;20436;-66
2022/06/20 13:21:26;;;;;;;5.87;3.20;;;32.70;30.60;;;;;;5031373;28;20525;-65
2022/06/20 13:24:22;;;;;;;13.90;3.83;;;32.60;30.50;;;;;;5068074;28;20530;-67
2022/06/20 13:27:01;;;;;;;7.63;3.60;;;32.40;29.70;;;;;;5073438;28;20485;-66
2022/06/20 13:29:37;;;;;;;8.93;3.80;;;32.30;30.30;;;;;;5072957;28;20526;-66
2022/06/20 13:32:18;;;;;;;11.23;3.77;;;32.20;30.90;;;;;;5073425;28;20436;-67
2022/06/20 13:34:54;;;;;;;8.00;3.53;;;32.20;31.10;;;;;;5073556;28;20519;-66